createdAt,value
2023-01-04T00:00:04.823Z,8.55
2023-01-04T00:01:04.733Z,8.53
2023-01-04T00:02:04.778Z,8.55
2023-01-04T00:03:04.863Z,8.55
2023-01-04T00:04:04.794Z,8.55
2023-01-04T00:05:04.785Z,8.57
2023-01-04T00:06:04.689Z,8.57
2023-01-04T00:07:04.690Z,8.59
2023-01-04T00:08:04.681Z,8.59
2023-01-04T00:09:04.761Z,8.60
2023-01-04T00:10:04.786Z,8.60
2023-01-04T00:11:04.636Z,8.60
2023-01-04T00:12:04.645Z,8.60
2023-01-04T00:13:04.642Z,8.62
2023-01-04T00:14:04.620Z,8.62
2023-01-04T00:15:04.629Z,8.60
2023-01-04T00:16:08.033Z,8.60
2023-01-04T00:17:04.660Z,8.62
2023-01-04T00:18:04.560Z,8.62
2023-01-04T00:19:04.550Z,8.63
2023-01-04T00:20:04.615Z,8.62
2023-01-04T00:21:04.538Z,8.63
2023-01-04T00:22:04.556Z,8.63
2023-01-04T00:23:04.510Z,8.63
2023-01-04T00:24:04.497Z,8.63
2023-01-04T00:25:04.521Z,8.65
2023-01-04T00:26:04.486Z,8.67
2023-01-04T00:27:04.469Z,8.65
2023-01-04T00:28:04.483Z,8.68
2023-01-04T00:29:04.472Z,8.68
2023-01-04T00:30:04.437Z,8.68
2023-01-04T00:31:04.498Z,8.70
2023-01-04T00:32:04.439Z,8.72
2023-01-04T00:33:04.397Z,8.71
2023-01-04T00:34:04.396Z,8.72
2023-01-04T00:35:04.396Z,8.72
2023-01-04T00:36:04.368Z,8.72
2023-01-04T00:37:04.381Z,8.72
2023-01-04T00:38:04.423Z,8.74
2023-01-04T00:39:04.390Z,8.74
2023-01-04T00:40:04.378Z,8.75
2023-01-04T00:41:04.360Z,8.75
2023-01-04T00:42:04.357Z,8.77
2023-01-04T00:43:04.297Z,8.77
2023-01-04T00:44:04.279Z,8.75
2023-01-04T00:45:04.270Z,8.77
2023-01-04T00:46:04.335Z,8.80
2023-01-04T00:47:04.275Z,8.78
2023-01-04T00:48:04.288Z,8.78
2023-01-04T00:49:04.245Z,8.78
2023-01-04T00:50:04.217Z,8.77
2023-01-04T00:51:04.331Z,8.80
2023-01-04T00:52:04.195Z,8.78
2023-01-04T00:53:04.190Z,8.81
2023-01-04T00:54:04.187Z,8.81
2023-01-04T00:55:04.210Z,8.80
2023-01-04T00:56:04.156Z,8.78
2023-01-04T00:57:04.175Z,8.80
2023-01-04T00:58:04.127Z,8.81
2023-01-04T00:59:04.115Z,8.80
2023-01-04T01:00:04.139Z,8.81
2023-01-04T01:01:04.106Z,8.81
2023-01-04T01:02:04.205Z,8.81
2023-01-04T01:03:04.418Z,8.81
2023-01-04T01:04:04.247Z,8.81
2023-01-04T01:05:04.068Z,8.81
2023-01-04T01:06:04.032Z,8.80
2023-01-04T01:07:04.033Z,8.80
2023-01-04T01:08:04.026Z,8.78
2023-01-04T01:09:04.058Z,8.77
2023-01-04T01:10:04.010Z,8.77
2023-01-04T01:11:04.001Z,8.77
2023-01-04T01:12:03.986Z,8.75
2023-01-04T01:13:03.996Z,8.75
2023-01-04T01:14:04.002Z,8.77
2023-01-04T01:15:03.982Z,8.75
2023-01-04T01:16:04.148Z,8.75
2023-01-04T01:17:04.069Z,8.75
2023-01-04T01:18:04.059Z,8.77
2023-01-04T01:19:03.953Z,8.77
2023-01-04T01:20:03.902Z,8.77
2023-01-04T01:21:03.880Z,8.74
2023-01-04T01:22:03.862Z,8.74
2023-01-04T01:23:03.883Z,8.72
2023-01-04T01:24:03.903Z,8.72
2023-01-04T01:25:03.907Z,8.71
2023-01-04T01:26:03.864Z,8.70
2023-01-04T01:27:03.828Z,8.70
2023-01-04T01:28:03.793Z,8.67
2023-01-04T01:29:03.802Z,8.68
2023-01-04T01:30:03.812Z,8.68
2023-01-04T01:31:08.506Z,8.67
2023-01-04T01:32:04.793Z,8.65
2023-01-04T01:33:03.771Z,8.65
2023-01-04T01:34:03.814Z,8.62
2023-01-04T01:35:03.803Z,8.60
2023-01-04T01:36:03.732Z,8.59
2023-01-04T01:37:03.724Z,8.60
2023-01-04T01:38:03.701Z,8.59
2023-01-04T01:39:03.699Z,8.56
2023-01-04T01:40:03.917Z,8.56
2023-01-04T01:41:03.720Z,8.55
2023-01-04T01:42:03.673Z,8.53
2023-01-04T01:43:03.679Z,8.53
2023-01-04T01:44:03.640Z,8.53
2023-01-04T01:45:03.621Z,8.52
2023-01-04T01:46:03.677Z,8.49
2023-01-04T01:47:03.695Z,8.52
2023-01-04T01:48:03.600Z,8.50
2023-01-04T01:49:03.581Z,8.49
2023-01-04T01:50:03.600Z,8.49
2023-01-04T01:51:03.551Z,8.50
2023-01-04T01:52:03.600Z,8.49
2023-01-04T01:53:03.585Z,8.47
2023-01-04T01:54:03.565Z,8.47
2023-01-04T01:55:03.528Z,8.47
2023-01-04T01:56:03.551Z,8.47
2023-01-04T01:57:03.551Z,8.49
2023-01-04T01:58:03.473Z,8.49
2023-01-04T01:59:03.505Z,8.50
2023-01-04T02:00:03.451Z,8.50
2023-01-04T02:01:03.455Z,8.49
2023-01-04T02:02:03.524Z,8.50
2023-01-04T02:03:03.534Z,8.49
2023-01-04T02:04:03.480Z,8.50
2023-01-04T02:05:03.445Z,8.50
2023-01-04T02:06:03.394Z,8.49
2023-01-04T02:07:03.393Z,8.49
2023-01-04T02:08:03.388Z,8.49
2023-01-04T02:09:03.421Z,8.50
2023-01-04T02:10:03.439Z,8.50
2023-01-04T02:11:03.414Z,8.50
2023-01-04T02:12:03.368Z,8.50
2023-01-04T02:13:03.330Z,8.49
2023-01-04T02:14:03.401Z,8.49
2023-01-04T02:15:03.350Z,8.49
2023-01-04T02:16:03.358Z,8.49
2023-01-04T02:17:03.291Z,8.46
2023-01-04T02:18:03.312Z,8.44
2023-01-04T02:19:03.279Z,8.44
2023-01-04T02:20:03.320Z,8.44
2023-01-04T02:21:03.252Z,8.46
2023-01-04T02:22:03.229Z,8.42
2023-01-04T02:23:03.229Z,8.41
2023-01-04T02:24:03.209Z,8.39
2023-01-04T02:25:03.220Z,8.38
2023-01-04T02:26:03.182Z,8.38
2023-01-04T02:27:03.189Z,8.37
2023-01-04T02:28:03.168Z,8.35
2023-01-04T02:29:03.159Z,8.34
2023-01-04T02:30:03.181Z,8.32
2023-01-04T02:31:03.162Z,8.31
2023-01-04T02:32:03.139Z,8.31
2023-01-04T02:33:03.166Z,8.29
2023-01-04T02:34:03.095Z,8.31
2023-01-04T02:35:03.160Z,8.28
2023-01-04T02:36:03.221Z,8.28
2023-01-04T02:37:03.110Z,8.28
2023-01-04T02:38:03.115Z,8.26
2023-01-04T02:39:03.055Z,8.26
2023-01-04T02:40:03.182Z,8.26
2023-01-04T02:41:03.226Z,8.26
2023-01-04T02:42:03.047Z,8.24
2023-01-04T02:43:03.034Z,8.24
2023-01-04T02:44:03.017Z,8.24
2023-01-04T02:45:02.987Z,8.23
2023-01-04T02:46:03.052Z,8.23
2023-01-04T02:47:03.156Z,8.23
2023-01-04T02:48:02.960Z,8.23
2023-01-04T02:49:02.987Z,8.23
2023-01-04T02:50:05.374Z,8.24
2023-01-04T02:51:02.930Z,8.23
2023-01-04T02:52:03.024Z,8.24
2023-01-04T02:53:03.121Z,8.23
2023-01-04T02:54:02.957Z,8.24
2023-01-04T02:55:02.897Z,8.24
2023-01-04T02:56:02.885Z,8.24
2023-01-04T02:57:05.791Z,8.24
2023-01-04T02:58:02.879Z,8.24
2023-01-04T02:59:03.097Z,8.23
2023-01-04T03:00:02.914Z,8.26
2023-01-04T03:01:02.819Z,8.26
2023-01-04T03:02:03.167Z,8.26
2023-01-04T03:03:02.862Z,8.28
2023-01-04T03:04:02.847Z,8.28
2023-01-04T03:05:02.771Z,8.29
2023-01-04T03:06:02.776Z,8.29
2023-01-04T03:07:02.904Z,8.29
2023-01-04T03:08:02.948Z,8.31
2023-01-04T03:09:02.736Z,8.29
2023-01-04T03:10:02.779Z,8.29
2023-01-04T03:11:02.732Z,8.31
2023-01-04T03:12:02.692Z,8.34
2023-01-04T03:13:02.707Z,8.34
2023-01-04T03:14:02.699Z,8.34
2023-01-04T03:15:03.707Z,8.34
2023-01-04T03:16:02.721Z,8.35
2023-01-04T03:17:02.676Z,8.37
2023-01-04T03:18:02.631Z,8.37
2023-01-04T03:19:02.613Z,8.37
2023-01-04T03:20:02.688Z,8.37
2023-01-04T03:21:02.621Z,8.38
2023-01-04T03:22:02.665Z,8.41
2023-01-04T03:23:02.594Z,8.42
2023-01-04T03:24:02.565Z,8.44
2023-01-04T03:25:02.544Z,8.46
2023-01-04T03:26:02.634Z,8.46
2023-01-04T03:27:02.620Z,8.44
2023-01-04T03:28:02.665Z,8.49
2023-01-04T03:29:02.519Z,8.47
2023-01-04T03:30:02.503Z,8.49
2023-01-04T03:31:02.584Z,8.49
2023-01-04T03:32:02.495Z,8.52
2023-01-04T03:33:02.516Z,8.52
2023-01-04T03:34:02.522Z,8.53
2023-01-04T03:35:02.784Z,8.56
2023-01-04T03:36:02.505Z,8.57
2023-01-04T03:37:02.480Z,8.57
2023-01-04T03:38:02.456Z,8.59
2023-01-04T03:39:02.401Z,8.59
2023-01-04T03:40:02.396Z,8.60
2023-01-04T03:41:02.490Z,8.60
2023-01-04T03:42:02.416Z,8.62
2023-01-04T03:43:02.363Z,8.65
2023-01-04T03:44:02.383Z,8.65
2023-01-04T03:45:09.483Z,8.68
2023-01-04T03:46:03.350Z,8.67
2023-01-04T03:47:02.393Z,8.70
2023-01-04T03:48:02.295Z,8.68
2023-01-04T03:49:02.300Z,8.70
2023-01-04T03:50:02.306Z,8.71
2023-01-04T03:51:02.272Z,8.71
2023-01-04T03:52:02.287Z,8.72
2023-01-04T03:53:02.265Z,8.74
2023-01-04T03:54:02.233Z,8.74
2023-01-04T03:55:02.255Z,8.74
2023-01-04T03:56:02.285Z,8.75
2023-01-04T03:57:02.273Z,8.77
2023-01-04T03:58:02.220Z,8.77
2023-01-04T03:59:02.202Z,8.78
2023-01-04T04:00:02.185Z,8.77
2023-01-04T04:01:02.209Z,8.77
2023-01-04T04:02:02.269Z,8.80
2023-01-04T04:03:02.162Z,8.81
2023-01-04T04:04:02.206Z,8.78
2023-01-04T04:05:02.157Z,8.80
2023-01-04T04:06:02.110Z,8.80
2023-01-04T04:07:02.145Z,8.81
2023-01-04T04:08:02.151Z,8.81
2023-01-04T04:09:02.093Z,8.83
2023-01-04T04:10:02.367Z,8.83
2023-01-04T04:11:02.123Z,8.83
2023-01-04T04:12:02.077Z,8.81
2023-01-04T04:13:02.122Z,8.83
2023-01-04T04:14:02.101Z,8.83
2023-01-04T04:15:02.017Z,8.85
2023-01-04T04:16:02.090Z,8.83
2023-01-04T04:17:02.052Z,8.83
2023-01-04T04:18:02.040Z,8.85
2023-01-04T04:19:08.248Z,8.83
2023-01-04T04:20:02.960Z,8.83
2023-01-04T04:21:01.963Z,8.83
2023-01-04T04:22:01.962Z,8.85
2023-01-04T04:23:01.941Z,8.86
2023-01-04T04:24:01.976Z,8.86
2023-01-04T04:25:01.979Z,8.86
2023-01-04T04:26:01.911Z,8.86
2023-01-04T04:27:01.955Z,8.88
2023-01-04T04:28:01.937Z,8.89
2023-01-04T04:29:01.880Z,8.89
2023-01-04T04:30:01.911Z,8.88
2023-01-04T04:31:01.873Z,8.90
2023-01-04T04:32:01.893Z,8.88
2023-01-04T04:33:01.830Z,8.88
2023-01-04T04:34:01.897Z,8.89
2023-01-04T04:35:01.823Z,8.89
2023-01-04T04:36:01.812Z,8.88
2023-01-04T04:37:01.798Z,8.89
2023-01-04T04:38:01.785Z,8.92
2023-01-04T04:39:01.787Z,8.90
2023-01-04T04:40:01.884Z,8.92
2023-01-04T04:41:01.765Z,8.92
2023-01-04T04:42:01.771Z,8.90
2023-01-04T04:43:01.815Z,8.92
2023-01-04T04:44:01.753Z,8.93
2023-01-04T04:45:01.757Z,8.93
2023-01-04T04:46:01.819Z,8.93
2023-01-04T04:47:01.689Z,8.95
2023-01-04T04:48:01.775Z,8.93
2023-01-04T04:49:01.701Z,8.92
2023-01-04T04:50:01.662Z,8.92
2023-01-04T04:51:01.661Z,8.92
2023-01-04T04:52:01.679Z,8.93
2023-01-04T04:53:01.681Z,8.93
2023-01-04T04:54:01.659Z,8.93
2023-01-04T04:55:01.608Z,8.93
2023-01-04T04:56:01.591Z,8.93
2023-01-04T04:57:02.435Z,8.92
2023-01-04T04:58:01.577Z,8.95
2023-01-04T04:59:01.580Z,8.95
2023-01-04T05:00:01.542Z,8.98
2023-01-04T05:01:56.425Z,8.98
2023-01-04T05:02:56.427Z,8.98
2023-01-04T05:03:56.246Z,9.01
2023-01-04T05:04:56.198Z,9.01
2023-01-04T05:05:56.199Z,9.03
2023-01-04T05:06:56.178Z,9.03
2023-01-04T05:07:56.185Z,9.04
2023-01-04T05:08:56.162Z,9.06
2023-01-04T05:09:56.207Z,9.08
2023-01-04T05:10:56.126Z,9.06
2023-01-04T05:11:56.126Z,9.08
2023-01-04T05:12:58.101Z,9.08
2023-01-04T05:13:56.105Z,9.09
2023-01-04T05:14:56.085Z,9.11
2023-01-04T05:15:56.129Z,9.12
2023-01-04T05:16:56.092Z,9.12
2023-01-04T05:17:56.066Z,9.15
2023-01-04T05:18:56.045Z,9.15
2023-01-04T05:19:58.687Z,9.16
2023-01-04T05:20:56.026Z,9.16
2023-01-04T05:21:56.024Z,9.18
2023-01-04T05:22:56.006Z,9.23
2023-01-04T05:23:55.995Z,9.23
2023-01-04T05:24:55.975Z,9.26
2023-01-04T05:25:56.383Z,9.27
2023-01-04T05:26:55.972Z,9.32
2023-01-04T05:27:55.955Z,9.33
2023-01-04T05:28:55.935Z,9.36
2023-01-04T05:29:55.980Z,9.41
2023-01-04T05:30:56.120Z,9.44
2023-01-04T05:31:55.986Z,9.47
2023-01-04T05:32:55.904Z,9.50
2023-01-04T05:33:55.901Z,9.57
2023-01-04T05:34:55.873Z,9.59
2023-01-04T05:35:55.940Z,9.60
2023-01-04T05:36:55.858Z,9.62
2023-01-04T05:37:55.848Z,9.65
2023-01-04T05:38:55.825Z,9.67
2023-01-04T05:39:55.825Z,9.67
2023-01-04T05:40:55.864Z,9.72
2023-01-04T05:41:55.804Z,9.73
2023-01-04T05:42:55.818Z,9.77
2023-01-04T05:43:55.770Z,9.78
2023-01-04T05:44:55.767Z,9.83
2023-01-04T05:45:55.891Z,9.84
2023-01-04T05:46:55.774Z,9.87
2023-01-04T05:47:55.738Z,9.87
2023-01-04T05:48:55.728Z,9.90
2023-01-04T05:49:55.724Z,9.91
2023-01-04T05:50:55.713Z,9.93
2023-01-04T05:51:55.701Z,9.93
2023-01-04T05:52:55.753Z,9.94
2023-01-04T05:53:55.681Z,9.91
2023-01-04T05:54:55.660Z,9.93
2023-01-04T05:55:55.662Z,9.91
2023-01-04T05:56:55.682Z,9.94
2023-01-04T05:57:55.685Z,9.96
2023-01-04T05:58:55.643Z,9.94
2023-01-04T05:59:55.615Z,9.96
2023-01-04T06:00:55.613Z,9.98
2023-01-04T06:01:55.655Z,9.99
2023-01-04T06:02:55.780Z,9.98
2023-01-04T06:03:55.906Z,9.98
2023-01-04T06:04:59.103Z,10.01
2023-01-04T06:05:55.564Z,10.01
2023-01-04T06:06:55.537Z,10.01
2023-01-04T06:07:55.527Z,10.03
2023-01-04T06:08:55.512Z,10.03
2023-01-04T06:09:56.902Z,10.03
2023-01-04T06:10:55.489Z,10.05
2023-01-04T06:11:55.481Z,10.06
2023-01-04T06:12:55.518Z,10.06
2023-01-04T06:13:55.502Z,10.06
2023-01-04T06:14:55.454Z,10.08
2023-01-04T06:15:55.443Z,10.09
2023-01-04T06:16:55.489Z,10.09
2023-01-04T06:17:55.534Z,10.12
2023-01-04T06:18:55.461Z,10.12
2023-01-04T06:19:55.442Z,10.16
2023-01-04T06:20:55.383Z,10.20
2023-01-04T06:21:55.372Z,10.23
2023-01-04T06:22:55.359Z,10.27
2023-01-04T06:23:55.359Z,10.28
2023-01-04T06:24:55.389Z,10.28
2023-01-04T06:25:55.365Z,10.30
2023-01-04T06:26:55.323Z,10.31
2023-01-04T06:27:55.301Z,10.35
2023-01-04T06:28:55.332Z,10.31
2023-01-04T06:29:55.293Z,10.31
2023-01-04T06:30:55.350Z,10.30
2023-01-04T06:31:55.319Z,10.31
2023-01-04T06:32:55.291Z,10.30
2023-01-04T06:33:55.239Z,10.30
2023-01-04T06:34:55.243Z,10.34
2023-01-04T06:35:55.259Z,10.36
2023-01-04T06:36:55.233Z,10.36
2023-01-04T06:37:55.211Z,10.39
2023-01-04T06:38:55.351Z,10.39
2023-01-04T06:39:55.180Z,10.41
2023-01-04T06:40:55.188Z,10.42
2023-01-04T06:41:59.081Z,10.42
2023-01-04T06:42:56.214Z,10.42
2023-01-04T06:43:55.180Z,10.43
2023-01-04T06:44:55.132Z,10.45
2023-01-04T06:45:55.173Z,10.45
2023-01-04T06:46:55.144Z,10.46
2023-01-04T06:47:55.106Z,10.46
2023-01-04T06:48:55.101Z,10.46
2023-01-04T06:49:55.131Z,10.46
2023-01-04T06:50:55.081Z,10.48
2023-01-04T06:51:55.049Z,10.49
2023-01-04T06:52:55.041Z,10.52
2023-01-04T06:53:55.043Z,10.49
2023-01-04T06:54:55.042Z,10.52
2023-01-04T06:55:55.057Z,10.52
2023-01-04T06:56:55.018Z,10.52
2023-01-04T06:57:59.296Z,10.49
2023-01-04T06:58:54.978Z,10.49
2023-01-04T06:59:55.038Z,10.49
2023-01-04T07:00:55.019Z,10.52
2023-01-04T07:01:55.104Z,10.52
2023-01-04T07:03:13.411Z,10.54
2023-01-04T07:03:55.993Z,10.54
2023-01-04T07:04:54.939Z,10.57
2023-01-04T07:05:54.961Z,10.57
2023-01-04T07:06:54.903Z,10.57
2023-01-04T07:07:54.935Z,10.55
2023-01-04T07:08:54.868Z,10.54
2023-01-04T07:09:54.867Z,10.54
2023-01-04T07:10:54.849Z,10.52
2023-01-04T07:11:54.931Z,10.52
2023-01-04T07:12:54.863Z,10.52
2023-01-04T07:13:54.837Z,10.49
2023-01-04T07:14:54.806Z,10.52
2023-01-04T07:15:54.895Z,10.57
2023-01-04T07:16:54.779Z,10.61
2023-01-04T07:17:54.868Z,10.64
2023-01-04T07:18:54.783Z,10.64
2023-01-04T07:19:54.792Z,10.65
2023-01-04T07:20:54.740Z,10.65
2023-01-04T07:21:54.736Z,10.67
2023-01-04T07:22:54.732Z,10.67
2023-01-04T07:23:56.395Z,10.68
2023-01-04T07:24:54.696Z,10.68
2023-01-04T07:25:54.751Z,10.70
2023-01-04T07:26:54.679Z,10.72
2023-01-04T07:27:54.658Z,10.73
2023-01-04T07:28:54.669Z,10.75
2023-01-04T07:29:54.640Z,10.73
2023-01-04T07:30:54.676Z,10.73
2023-01-04T07:32:01.917Z,10.73
2023-01-04T07:32:54.639Z,10.73
2023-01-04T07:33:54.618Z,10.70
2023-01-04T07:34:54.761Z,10.70
2023-01-04T07:35:54.594Z,10.68
2023-01-04T07:36:54.646Z,10.65
2023-01-04T07:37:58.681Z,10.64
2023-01-04T07:38:54.558Z,10.61
2023-01-04T07:39:54.540Z,10.61
2023-01-04T07:40:56.050Z,10.57
2023-01-04T07:41:54.586Z,10.57
2023-01-04T07:42:54.519Z,10.54
2023-01-04T07:43:54.501Z,10.54
2023-01-04T07:44:54.492Z,10.55
2023-01-04T07:45:54.505Z,10.52
2023-01-04T07:46:54.666Z,10.52
2023-01-04T07:47:54.521Z,10.52
2023-01-04T07:48:54.445Z,10.49
2023-01-04T07:49:54.462Z,10.52
2023-01-04T07:50:54.428Z,10.52
2023-01-04T07:51:54.429Z,10.54
2023-01-04T07:52:54.405Z,10.54
2023-01-04T07:53:54.920Z,10.54
2023-01-04T07:54:54.384Z,10.55
2023-01-04T07:55:54.378Z,10.55
2023-01-04T07:56:54.378Z,10.55
2023-01-04T07:57:54.469Z,10.55
2023-01-04T07:58:54.348Z,10.57
2023-01-04T07:59:54.396Z,10.57
2023-01-04T08:00:54.385Z,10.57
2023-01-04T08:01:54.391Z,10.58
2023-01-04T08:02:54.413Z,10.58
2023-01-04T08:03:54.297Z,10.60
2023-01-04T08:04:54.408Z,10.62
2023-01-04T08:05:54.254Z,10.64
2023-01-04T08:06:54.254Z,10.65
2023-01-04T08:07:54.266Z,10.67
2023-01-04T08:08:54.236Z,10.65
2023-01-04T08:09:54.255Z,10.68
2023-01-04T08:10:54.254Z,10.70
2023-01-04T08:11:54.194Z,10.72
2023-01-04T08:12:54.228Z,10.72
2023-01-04T08:13:54.165Z,10.73
2023-01-04T08:14:54.172Z,10.75
2023-01-04T08:15:54.207Z,10.79
2023-01-04T08:16:54.182Z,10.79
2023-01-04T08:17:54.166Z,10.80
2023-01-04T08:18:54.137Z,10.85
2023-01-04T08:19:54.121Z,10.86
2023-01-04T08:20:58.472Z,10.91
2023-01-04T08:21:54.085Z,10.93
2023-01-04T08:22:54.105Z,10.94
2023-01-04T08:23:54.087Z,10.97
2023-01-04T08:24:54.060Z,10.98
2023-01-04T08:25:54.075Z,11.00
2023-01-04T08:26:54.049Z,11.00
2023-01-04T08:27:54.034Z,11.00
2023-01-04T08:28:54.025Z,11.01
2023-01-04T08:29:54.034Z,11.01
2023-01-04T08:30:54.025Z,11.03
2023-01-04T08:31:54.118Z,11.03
2023-01-04T08:32:53.993Z,11.08
2023-01-04T08:33:53.989Z,11.09
2023-01-04T08:34:53.979Z,11.08
2023-01-04T08:35:53.943Z,11.08
2023-01-04T08:36:53.949Z,11.08
2023-01-04T08:37:53.921Z,11.09
2023-01-04T08:39:02.024Z,11.09
2023-01-04T08:39:55.043Z,11.09
2023-01-04T08:40:59.820Z,11.11
2023-01-04T08:42:20.983Z,11.12
2023-01-04T08:42:54.871Z,11.13
2023-01-04T08:43:53.849Z,11.13
2023-01-04T08:44:58.902Z,11.12
2023-01-04T08:45:54.968Z,11.13
2023-01-04T08:46:53.926Z,11.13
2023-01-04T08:47:53.833Z,11.15
2023-01-04T08:48:54.046Z,11.16
2023-01-04T08:49:53.809Z,11.16
2023-01-04T08:50:53.896Z,11.20
2023-01-04T08:51:53.766Z,11.22
2023-01-04T08:52:53.774Z,11.27
2023-01-04T08:53:53.735Z,11.28
2023-01-04T08:54:53.751Z,11.33
2023-01-04T08:55:53.860Z,11.38
2023-01-04T08:56:53.811Z,11.40
2023-01-04T08:57:53.842Z,11.40
2023-01-04T08:58:53.723Z,11.43
2023-01-04T09:00:00.547Z,11.41
2023-01-04T09:00:53.693Z,11.40
2023-01-04T09:01:53.818Z,11.40
2023-01-04T09:02:53.735Z,11.41
2023-01-04T09:03:53.629Z,11.41
2023-01-04T09:04:56.080Z,11.43
2023-01-04T09:05:53.605Z,11.43
2023-01-04T09:06:53.605Z,11.43
2023-01-04T09:07:53.615Z,11.41
2023-01-04T09:08:53.582Z,11.43
2023-01-04T09:09:53.564Z,11.45
2023-01-04T09:10:53.601Z,11.43
2023-01-04T09:11:53.576Z,11.41
2023-01-04T09:12:53.605Z,11.41
2023-01-04T09:13:53.525Z,11.40
2023-01-04T09:14:53.554Z,11.36
2023-01-04T09:15:53.611Z,11.36
2023-01-04T09:16:53.494Z,11.37
2023-01-04T09:18:29.305Z,11.40
2023-01-04T09:18:54.477Z,11.38
2023-01-04T09:19:53.492Z,11.38
2023-01-04T09:20:53.460Z,11.37
2023-01-04T09:21:53.522Z,11.36
2023-01-04T09:22:53.550Z,11.36
2023-01-04T09:23:53.464Z,11.37
2023-01-04T09:24:53.429Z,11.38
2023-01-04T09:25:53.457Z,11.38
2023-01-04T09:26:53.428Z,11.40
2023-01-04T09:27:53.387Z,11.40
2023-01-04T09:28:53.434Z,11.40
2023-01-04T09:29:53.383Z,11.40
2023-01-04T09:30:53.351Z,11.40
2023-01-04T09:31:53.417Z,11.40
2023-01-04T09:32:53.335Z,11.38
2023-01-04T09:34:54.345Z,11.36
2023-01-04T09:35:53.290Z,11.34
2023-01-04T09:36:53.285Z,11.34
2023-01-04T09:37:53.269Z,11.33
2023-01-04T09:38:53.301Z,11.34
2023-01-04T09:39:53.332Z,11.34
2023-01-04T09:40:53.272Z,11.31
2023-01-04T09:41:53.237Z,11.33
2023-01-04T09:43:20.093Z,11.34
2023-01-04T09:43:54.240Z,11.36
2023-01-04T09:45:54.179Z,11.36
2023-01-04T09:46:53.371Z,11.34
2023-01-04T09:47:53.168Z,11.33
2023-01-04T09:48:58.377Z,11.33
2023-01-04T09:49:53.180Z,11.36
2023-01-04T09:50:53.137Z,11.36
2023-01-04T09:51:53.149Z,11.36
2023-01-04T09:52:53.273Z,11.37
2023-01-04T09:53:53.132Z,11.37
2023-01-04T09:54:55.027Z,11.37
2023-01-04T09:55:53.081Z,11.38
2023-01-04T09:56:53.068Z,11.40
2023-01-04T09:57:53.090Z,11.41
2023-01-04T09:58:53.056Z,11.43
2023-01-04T09:59:53.020Z,11.45
2023-01-04T10:00:53.065Z,11.46
2023-01-04T10:01:53.331Z,11.45
2023-01-04T10:02:53.127Z,11.46
2023-01-04T10:03:53.168Z,11.45
2023-01-04T10:04:52.993Z,11.43
2023-01-04T10:05:52.991Z,11.41
2023-01-04T10:06:52.975Z,11.43
2023-01-04T10:07:52.940Z,11.43
2023-01-04T10:08:52.999Z,11.41
2023-01-04T10:09:52.960Z,11.41
2023-01-04T10:10:52.973Z,11.41
2023-01-04T10:11:52.963Z,11.40
2023-01-04T10:12:56.475Z,11.41
2023-01-04T10:13:53.900Z,11.41
2023-01-04T10:14:52.878Z,11.41
2023-01-04T10:15:52.957Z,11.40
2023-01-04T10:19:28.970Z,11.41
2023-01-04T10:21:53.973Z,11.51
2023-01-04T10:22:52.879Z,11.52
2023-01-04T10:23:57.952Z,11.54
2023-01-04T10:24:58.076Z,11.56
2023-01-04T10:25:52.759Z,11.56
2023-01-04T10:26:55.635Z,11.56
2023-01-04T10:27:52.728Z,11.56
2023-01-04T10:28:52.770Z,11.58
2023-01-04T10:29:52.746Z,11.56
2023-01-04T10:30:52.706Z,11.58
2023-01-04T10:31:52.745Z,11.55
2023-01-04T10:32:52.688Z,11.54
2023-01-04T10:33:54.549Z,11.54
2023-01-04T10:34:52.705Z,11.51
2023-01-04T10:35:52.639Z,11.49
2023-01-04T10:36:52.633Z,11.51
2023-01-04T10:37:52.664Z,11.51
2023-01-04T10:38:52.619Z,11.49
2023-01-04T10:39:55.874Z,11.48
2023-01-04T10:40:52.597Z,11.46
2023-01-04T10:41:52.579Z,11.46
2023-01-04T10:42:52.622Z,11.45
2023-01-04T10:44:11.815Z,11.41
2023-01-04T10:44:54.202Z,11.40
2023-01-04T10:45:52.957Z,11.38
2023-01-04T10:46:52.683Z,11.37
2023-01-04T10:47:52.519Z,11.37
2023-01-04T10:48:52.541Z,11.36
2023-01-04T10:49:52.491Z,11.36
2023-01-04T10:50:52.477Z,11.36
2023-01-04T10:51:52.471Z,11.40
2023-01-04T10:52:52.508Z,11.52
2023-01-04T10:53:52.503Z,11.51
2023-01-04T10:54:52.447Z,11.49
2023-01-04T10:56:26.010Z,11.54
2023-01-04T10:56:53.472Z,11.55
2023-01-04T10:57:55.697Z,11.48
2023-01-04T10:58:52.457Z,11.49
2023-01-04T10:59:52.387Z,11.49
2023-01-04T11:00:52.447Z,11.48
2023-01-04T11:02:00.069Z,11.45
2023-01-04T11:02:52.653Z,11.45
2023-01-04T11:03:52.383Z,11.45
2023-01-04T11:04:52.352Z,11.46
2023-01-04T11:05:52.488Z,11.45
2023-01-04T11:06:52.363Z,11.45
2023-01-04T11:07:52.308Z,11.45
2023-01-04T11:08:52.633Z,11.45
2023-01-04T11:09:52.281Z,11.45
2023-01-04T11:10:52.348Z,11.43
2023-01-04T11:11:52.275Z,11.46
2023-01-04T11:12:52.261Z,11.45
2023-01-04T11:13:52.296Z,11.45
2023-01-04T11:14:52.286Z,11.45
2023-01-04T11:15:52.232Z,11.43
2023-01-04T11:16:52.339Z,11.43
2023-01-04T11:17:52.193Z,11.46
2023-01-04T11:18:52.181Z,11.48
2023-01-04T11:19:53.863Z,11.49
2023-01-04T11:20:52.163Z,11.51
2023-01-04T11:21:52.177Z,11.51
2023-01-04T11:22:52.231Z,11.51
2023-01-04T11:23:52.758Z,11.52
2023-01-04T11:25:33.204Z,11.54
2023-01-04T11:25:56.873Z,11.54
2023-01-04T11:26:52.101Z,11.55
2023-01-04T11:27:52.110Z,11.54
2023-01-04T11:28:52.104Z,11.52
2023-01-04T11:29:52.089Z,11.54
2023-01-04T11:30:52.061Z,11.54
2023-01-04T11:31:52.100Z,11.52
2023-01-04T11:32:52.090Z,11.54
2023-01-04T11:33:52.014Z,11.52
2023-01-04T11:34:51.999Z,11.52
2023-01-04T11:35:52.028Z,11.49
2023-01-04T11:36:52.021Z,11.49
2023-01-04T11:37:55.790Z,11.48
2023-01-04T11:38:51.960Z,11.48
2023-01-04T11:39:51.948Z,11.45
2023-01-04T11:40:52.035Z,11.45
2023-01-04T11:41:52.842Z,11.45
2023-01-04T11:42:51.925Z,11.41
2023-01-04T11:43:51.960Z,11.45
2023-01-04T11:44:51.900Z,11.43
2023-01-04T11:45:51.974Z,11.43
2023-01-04T11:46:51.893Z,11.43
2023-01-04T11:47:51.893Z,11.43
2023-01-04T11:48:51.892Z,11.41
2023-01-04T11:49:51.891Z,11.43
2023-01-04T11:50:51.839Z,11.43
2023-01-04T11:51:51.924Z,11.45
2023-01-04T11:52:51.821Z,11.45
2023-01-04T11:53:51.798Z,11.46
2023-01-04T11:54:51.850Z,11.45
2023-01-04T11:55:51.790Z,11.46
2023-01-04T11:56:52.089Z,11.46
2023-01-04T11:57:51.770Z,11.46
2023-01-04T11:58:51.761Z,11.48
2023-01-04T11:59:51.761Z,11.49
2023-01-04T12:00:51.765Z,11.51
2023-01-04T12:01:51.822Z,11.52
2023-01-04T12:03:04.594Z,11.51
2023-01-04T12:03:52.731Z,11.51
2023-01-04T12:04:51.707Z,11.51
2023-01-04T12:05:51.751Z,11.49
2023-01-04T12:06:51.680Z,11.48
2023-01-04T12:07:51.670Z,11.49
2023-01-04T12:08:51.721Z,11.49
2023-01-04T12:09:51.672Z,11.49
2023-01-04T12:10:51.628Z,11.51
2023-01-04T12:11:51.629Z,11.52
2023-01-04T12:12:51.611Z,11.54
2023-01-04T12:13:51.623Z,11.54
2023-01-04T12:14:51.631Z,11.52
2023-01-04T12:15:51.580Z,11.54
2023-01-04T12:16:51.626Z,11.54
2023-01-04T12:17:51.561Z,11.55
2023-01-04T12:18:51.552Z,11.54
2023-01-04T12:19:51.579Z,11.54
2023-01-04T12:20:51.520Z,11.54
2023-01-04T12:21:51.512Z,11.55
2023-01-04T12:22:51.529Z,11.55
2023-01-04T12:23:51.503Z,11.55
2023-01-04T12:24:56.837Z,11.56
2023-01-04T12:25:52.466Z,11.55
2023-01-04T12:26:51.487Z,11.55
2023-01-04T12:27:51.485Z,11.56
2023-01-04T12:28:51.458Z,11.58
2023-01-04T12:29:51.430Z,11.58
2023-01-04T12:30:51.472Z,11.58
2023-01-04T12:31:51.414Z,11.58
2023-01-04T12:32:51.397Z,11.56
2023-01-04T12:33:51.382Z,11.56
2023-01-04T12:34:51.435Z,11.56
2023-01-04T12:35:51.380Z,11.56
2023-01-04T12:36:51.420Z,11.55
2023-01-04T12:37:51.341Z,11.55
2023-01-04T12:38:51.320Z,11.54
2023-01-04T12:39:51.444Z,11.55
2023-01-04T12:40:51.301Z,11.55
2023-01-04T12:41:51.459Z,11.55
2023-01-04T12:42:51.289Z,11.58
2023-01-04T12:43:51.282Z,11.58
2023-01-04T12:44:51.363Z,11.59
2023-01-04T12:45:51.394Z,11.59
2023-01-04T12:46:51.280Z,11.61
2023-01-04T12:47:51.237Z,11.62
2023-01-04T12:48:58.410Z,11.62
2023-01-04T12:49:51.230Z,11.64
2023-01-04T12:50:58.197Z,11.64
2023-01-04T12:52:12.840Z,11.66
2023-01-04T12:53:19.431Z,11.66
2023-01-04T12:53:52.180Z,11.67
2023-01-04T12:54:51.171Z,11.69
2023-01-04T12:55:51.150Z,11.69
2023-01-04T12:56:51.170Z,11.71
2023-01-04T12:57:51.124Z,11.71
2023-01-04T12:59:24.015Z,11.71
2023-01-04T12:59:52.125Z,11.73
2023-01-04T13:00:51.094Z,11.73
2023-01-04T13:01:51.343Z,11.74
2023-01-04T13:02:51.691Z,11.74
2023-01-04T13:03:51.255Z,11.76
2023-01-04T13:05:09.376Z,11.77
2023-01-04T13:05:56.908Z,11.79
2023-01-04T13:06:52.029Z,11.80
2023-01-04T13:07:51.017Z,11.85
2023-01-04T13:08:51.007Z,11.85
2023-01-04T13:09:51.031Z,11.88
2023-01-04T13:10:51.008Z,11.89